Pagrindinis puslapis
METAR-TAF:

METAR-TAF

Oro uostai :

Puerto Cabezas, Nikaragva

platuma: 14-03N, ilguma: 083-22W, Aukštis: 20 m

Dabartinis oras

Ataskaita buvo paskelbta 21 minutes, ne 13:00 UTC
Ramus vėjas
Temperatūra 23°C
Drėgmė 94%
Slėgis 1016 hPa
Matomumas: 6000 m
Išsisklaidę debesys ne aukštis 1600 ft
rūkana

METAR: MNPC 281300Z 00000KT 6000 SCT016 23/22 Q1016 BR

Laikas: 07:21 (13:21 UTC)

Prognozė

Ataskaita buvo paskelbta 15 valandos ir 14 minutes, ne 22:07 UTC
Prognozė galioja nuo 28 metu 00 UTC su 28 metu 24 UTC
Vėjas 10 kt iš Rytų/Šiaurės Rytų su gūsio iki 20 kt
Matomumas: 6000 m
Su prošvaistėmis ne aukštis 1600 ft, aukštai iškilę kamuoliniai debesys.
Laikinai
nuo 28 metu 05 UTC su 28 metu 12 UTC
Vėjas 14 kt iš Šiaurės/Šiaurės Rytų su gūsio iki 24 kt
Matomumas: 5000 m
Su prošvaistėmis ne aukštis 1600 ft, aukštai iškilę kamuoliniai debesys.
Išsisklaidę debesys ne aukštis 10000 ft

TAF: MNPC 272207Z 2800/2824 07010G20KT 6000 HZ/VCRA BKN016TCU TEMPO 2805/2812 02014G24KT 5000 DZ/-RA BKN016TCU SCT100

Orai ataskaitas ir orų prognozės (METAR, TAF).

turimą stotys yra geltonos ir raudonos taškus žemėlapyje.

Perkelti pele per norėdami pamatyti stoties vardą.

Tada spustelėkite, norėdami matyti oro stebėjimo ir prognozės.

Norėdami pakeisti žemėlapį: spustelėkite ant žalios mygtukų su juodo kryžiaus žemyn,; žalią mygtuką su brūkšneliu, jei norite nutolinti; arba žalių rodyklių gretimoms žemėlapius.


METAR-TAF: